createdAt,value
2022-12-12T00:00:41.075Z,100772.06
2022-12-12T00:03:08.145Z,100769.59
2022-12-12T00:05:35.427Z,100778.34
2022-12-12T00:08:02.432Z,100775.69
2022-12-12T00:10:29.790Z,100767.13
2022-12-12T00:12:56.851Z,100774.00
2022-12-12T00:15:23.959Z,100771.38
2022-12-12T00:17:51.159Z,100775.25
2022-12-12T00:20:18.189Z,100774.38
2022-12-12T00:22:45.193Z,100767.75
2022-12-12T00:25:12.723Z,100771.31
2022-12-12T00:27:39.817Z,100779.34
2022-12-12T00:30:07.627Z,100774.13
2022-12-12T00:32:34.551Z,100772.78
2022-12-12T00:35:01.501Z,100775.41
2022-12-12T00:37:28.460Z,100787.78
2022-12-12T00:39:55.558Z,100796.97
2022-12-12T00:42:22.492Z,100794.88
2022-12-12T00:44:49.621Z,100792.63
2022-12-12T00:47:18.711Z,100791.84
2022-12-12T00:49:45.603Z,100787.28
2022-12-12T00:52:12.511Z,100789.91
2022-12-12T00:54:39.443Z,100794.31
2022-12-12T00:57:06.341Z,100789.50
2022-12-12T00:59:33.318Z,100797.75
2022-12-12T01:02:00.368Z,100794.00
2022-12-12T01:04:27.371Z,100800.72
2022-12-12T01:06:54.346Z,100789.97
2022-12-12T01:09:21.254Z,100793.31
2022-12-12T01:11:48.175Z,100797.75
2022-12-12T01:14:15.206Z,100799.63
2022-12-12T01:16:42.203Z,100803.25
2022-12-12T01:19:09.147Z,100805.94
2022-12-12T01:21:37.342Z,100801.50
2022-12-12T01:24:04.708Z,100811.16
2022-12-12T01:26:31.847Z,100812.88
2022-12-12T01:28:58.906Z,100817.56
2022-12-12T01:31:25.879Z,100827.66
2022-12-12T01:33:52.843Z,100829.03
2022-12-12T01:36:23.360Z,100838.13
2022-12-12T01:38:53.371Z,100838.94
2022-12-12T01:41:21.379Z,100836.84
2022-12-12T01:43:48.300Z,100835.56
2022-12-12T01:46:39.122Z,100829.50
2022-12-12T01:49:26.281Z,100841.06
2022-12-12T01:51:58.491Z,100850.38
2022-12-12T01:54:31.794Z,100848.25
2022-12-12T01:57:02.519Z,100840.66
2022-12-12T01:59:29.882Z,100840.97
2022-12-12T02:01:57.155Z,100835.44
2022-12-12T02:04:25.487Z,100835.34
2022-12-12T02:06:53.150Z,100838.66
2022-12-12T02:09:21.401Z,100835.44
2022-12-12T02:11:53.142Z,100836.94
2022-12-12T02:14:27.688Z,100832.28
2022-12-12T02:17:32.775Z,100837.59
2022-12-12T02:20:24.564Z,100844.75
2022-12-12T02:23:31.414Z,100837.69
2022-12-12T02:26:40.342Z,100840.13
2022-12-12T02:29:59.707Z,100832.72
2022-12-12T02:32:42.478Z,100829.44
2022-12-12T02:35:32.881Z,100830.69
2022-12-12T02:39:07.465Z,100831.81
2022-12-12T02:41:44.642Z,100832.47
2022-12-12T02:44:23.412Z,100837.88
2022-12-12T02:47:19.427Z,100834.69
2022-12-12T02:50:00.427Z,100839.81
2022-12-12T02:52:27.920Z,100838.50
2022-12-12T02:54:55.206Z,100832.16
2022-12-12T02:57:25.802Z,100844.28
2022-12-12T03:00:01.612Z,100834.75
2022-12-12T03:03:22.313Z,100839.28
2022-12-12T03:06:45.225Z,100842.16
2022-12-12T03:09:39.414Z,100851.88
2022-12-12T03:12:08.190Z,100864.56
2022-12-12T03:14:49.514Z,100860.22
2022-12-12T03:17:22.106Z,100865.13
2022-12-12T03:20:01.135Z,100859.22
2022-12-12T03:23:03.135Z,100854.94
2022-12-12T03:25:57.478Z,100856.59
2022-12-12T03:28:34.040Z,100852.72
2022-12-12T03:31:07.933Z,100857.75
2022-12-12T03:33:50.863Z,100843.75
2022-12-12T03:37:05.477Z,100855.19
2022-12-12T03:39:43.420Z,100847.53
2022-12-12T03:42:43.663Z,100850.47
2022-12-12T03:45:31.006Z,100851.84
2022-12-12T03:48:27.716Z,100851.75
2022-12-12T03:51:02.444Z,100841.34
2022-12-12T03:53:36.706Z,100842.31
2022-12-12T03:56:31.276Z,100851.53
2022-12-12T03:59:10.545Z,100852.13
2022-12-12T04:01:54.513Z,100851.41
2022-12-12T04:04:46.922Z,100853.84
2022-12-12T04:07:37.765Z,100848.88
2022-12-12T04:10:24.077Z,100850.13
2022-12-12T04:13:21.446Z,100858.34
2022-12-12T04:16:07.040Z,100868.13
2022-12-12T04:18:46.266Z,100862.72
2022-12-12T04:21:56.511Z,100866.06
2022-12-12T04:24:39.457Z,100863.47
2022-12-12T04:27:19.628Z,100871.69
2022-12-12T04:30:02.557Z,100870.06
2022-12-12T04:33:06.342Z,100878.66
2022-12-12T04:35:43.452Z,100873.34
2022-12-12T04:38:21.847Z,100873.94
2022-12-12T04:40:55.216Z,100882.81
2022-12-12T04:43:35.704Z,100877.28
2022-12-12T04:46:09.283Z,100875.88
2022-12-12T04:48:47.873Z,100884.47
2022-12-12T04:51:27.069Z,100886.59
2022-12-12T04:54:14.375Z,100882.38
2022-12-12T04:56:44.143Z,100889.88
2022-12-12T04:59:11.228Z,100882.97
2022-12-12T05:01:58.376Z,100884.59
2022-12-12T05:04:31.474Z,100896.75
2022-12-12T05:07:07.775Z,100890.75
2022-12-12T05:09:35.870Z,100892.00
2022-12-12T05:12:02.952Z,100897.63
2022-12-12T05:14:31.796Z,100893.13
2022-12-12T05:17:12.113Z,100898.97
2022-12-12T05:19:39.079Z,100902.16
2022-12-12T05:22:07.179Z,100902.53
2022-12-12T05:24:36.695Z,100897.19
2022-12-12T05:27:03.829Z,100891.19
2022-12-12T05:29:32.002Z,100899.69
2022-12-12T05:31:59.020Z,100898.66
2022-12-12T05:34:26.007Z,100904.19
2022-12-12T05:36:52.964Z,100903.41
2022-12-12T05:39:19.941Z,100895.44
2022-12-12T05:41:47.304Z,100913.72
2022-12-12T05:44:14.243Z,100910.50
2022-12-12T05:46:41.262Z,100918.22
2022-12-12T05:49:08.346Z,100918.47
2022-12-12T05:51:35.265Z,100918.28
2022-12-12T05:54:02.201Z,100911.19
2022-12-12T05:56:29.162Z,100907.34
2022-12-12T05:58:56.075Z,100906.66
2022-12-12T06:01:23.000Z,100917.22
2022-12-12T06:03:49.956Z,100903.78
2022-12-12T06:06:16.990Z,100920.25
2022-12-12T06:08:44.084Z,100908.16
2022-12-12T06:11:11.049Z,100908.44
2022-12-12T06:13:38.876Z,100908.31
2022-12-12T06:16:11.079Z,100915.41
2022-12-12T06:18:38.567Z,100911.81
2022-12-12T06:21:09.467Z,100918.53
2022-12-12T06:23:41.718Z,100913.63
2022-12-12T06:26:12.052Z,100918.56
2022-12-12T06:28:39.413Z,100920.06
2022-12-12T06:31:11.605Z,100937.16
2022-12-12T06:33:43.191Z,100929.31
2022-12-12T06:36:23.859Z,100928.28
2022-12-12T06:38:56.390Z,100911.00
2022-12-12T06:41:26.162Z,100921.03
2022-12-12T06:43:53.293Z,100926.94
2022-12-12T06:46:24.381Z,100921.72
2022-12-12T06:48:52.072Z,100921.81
2022-12-12T06:51:24.707Z,100930.56
2022-12-12T06:53:53.007Z,100928.44
2022-12-12T06:56:23.964Z,100940.47
2022-12-12T06:58:52.052Z,100937.06
2022-12-12T07:01:21.776Z,100935.41
2022-12-12T07:03:50.675Z,100940.75
2022-12-12T07:06:20.418Z,100935.63
2022-12-12T07:08:48.076Z,100951.09
2022-12-12T07:11:22.064Z,100944.19
2022-12-12T07:13:49.423Z,100935.91
2022-12-12T07:16:17.572Z,100947.59
2022-12-12T07:18:44.653Z,100950.44
2022-12-12T07:21:16.149Z,100954.25
2022-12-12T07:23:43.210Z,100969.84
2022-12-12T07:26:17.375Z,100966.09
2022-12-12T07:28:44.518Z,100970.78
2022-12-12T07:31:16.070Z,100975.31
2022-12-12T07:33:44.809Z,100980.25
2022-12-12T07:36:14.449Z,100979.78
2022-12-12T07:38:42.072Z,100973.28
2022-12-12T07:41:16.080Z,100979.59
2022-12-12T07:43:45.143Z,100965.47
2022-12-12T07:46:20.164Z,100973.38
2022-12-12T07:48:48.052Z,100991.72
2022-12-12T07:51:15.669Z,100978.44
2022-12-12T07:53:42.954Z,100975.88
2022-12-12T07:56:13.382Z,100975.38
2022-12-12T07:58:40.633Z,100974.50
2022-12-12T08:01:21.275Z,100987.16
2022-12-12T08:03:49.558Z,100977.13
2022-12-12T08:06:17.950Z,100981.25
2022-12-12T08:08:46.133Z,100975.16
2022-12-12T08:11:16.731Z,100979.66
2022-12-12T08:13:44.512Z,100980.38
2022-12-12T08:16:31.914Z,100981.78
2022-12-12T08:18:59.351Z,100972.47
2022-12-12T08:21:28.003Z,100967.63
2022-12-12T08:23:59.942Z,100975.50
2022-12-12T08:26:27.701Z,100962.00
2022-12-12T08:28:56.072Z,100966.44
2022-12-12T08:31:24.179Z,100955.72
2022-12-12T08:33:51.586Z,100958.09
2022-12-12T08:36:26.798Z,100973.00
2022-12-12T08:38:53.835Z,100956.44
2022-12-12T08:41:20.857Z,100969.63
2022-12-12T08:43:49.117Z,100975.59
2022-12-12T08:46:18.538Z,100968.16
2022-12-12T08:48:47.859Z,100985.28
2022-12-12T08:51:18.863Z,100984.75
2022-12-12T08:53:48.199Z,100984.03
2022-12-12T08:56:16.807Z,100985.19
2022-12-12T08:58:45.606Z,100987.47
2022-12-12T09:01:22.234Z,100996.63
2022-12-12T09:03:50.727Z,100990.31
2022-12-12T09:06:18.354Z,100992.56
2022-12-12T09:08:45.859Z,100989.66
2022-12-12T09:11:13.480Z,100992.13
2022-12-12T09:13:41.411Z,101001.78
2022-12-12T09:16:09.322Z,100994.19
2022-12-12T09:18:37.323Z,100991.31
2022-12-12T09:21:05.463Z,100976.69
2022-12-12T09:23:32.701Z,100977.38
2022-12-12T09:26:05.195Z,100985.31
2022-12-12T09:28:32.211Z,100978.66
2022-12-12T09:30:59.144Z,100986.75
2022-12-12T09:33:26.161Z,100988.94
2022-12-12T09:36:01.875Z,100997.56
2022-12-12T09:38:29.484Z,101006.69
2022-12-12T09:41:17.842Z,101017.75
2022-12-12T09:44:10.139Z,101014.31
2022-12-12T09:46:49.402Z,101023.91
2022-12-12T09:49:39.918Z,101021.34
2022-12-12T09:52:35.096Z,101011.91
2022-12-12T09:55:39.897Z,101020.75
2022-12-12T09:58:34.287Z,101010.22
2022-12-12T10:01:20.681Z,101014.50
2022-12-12T10:03:47.540Z,101017.59
2022-12-12T10:09:23.150Z,101014.88
2022-12-12T10:11:50.781Z,101025.38
2022-12-12T10:14:46.944Z,101014.72
2022-12-12T10:17:35.847Z,100999.63
2022-12-12T10:20:14.262Z,101000.88
2022-12-12T10:22:55.917Z,100999.72
2022-12-12T10:25:48.990Z,101002.22
2022-12-12T10:28:19.594Z,100996.50
2022-12-12T10:31:16.657Z,100995.28
2022-12-12T10:34:26.765Z,100996.00
2022-12-12T10:37:06.041Z,100988.84
2022-12-12T10:40:13.311Z,100995.88
2022-12-12T10:42:54.775Z,100993.00
2022-12-12T10:45:36.819Z,101003.53
2022-12-12T10:48:04.423Z,100990.53
2022-12-12T10:50:39.705Z,100989.50
2022-12-12T10:53:09.347Z,100989.94
2022-12-12T10:56:23.230Z,100971.19
2022-12-12T10:59:03.693Z,100987.50
2022-12-12T11:02:08.499Z,100980.63
2022-12-12T11:04:23.030Z,100982.97
2022-12-12T11:06:52.726Z,100981.84
2022-12-12T11:09:24.983Z,100978.75
2022-12-12T11:11:58.204Z,100994.44
2022-12-12T11:14:54.280Z,100980.03
2022-12-12T11:17:33.901Z,100977.34
2022-12-12T11:20:08.500Z,100980.84
2022-12-12T11:22:39.194Z,100971.81
2022-12-12T11:25:06.924Z,100964.75
2022-12-12T11:27:38.405Z,100962.69
2022-12-12T11:30:39.896Z,100969.75
2022-12-12T11:33:16.244Z,100968.19
2022-12-12T11:35:47.431Z,100970.34
2022-12-12T11:38:18.392Z,100954.13
2022-12-12T11:40:58.597Z,100953.06
2022-12-12T11:43:30.888Z,100941.53
2022-12-12T11:46:16.167Z,100934.91
2022-12-12T11:48:52.083Z,100932.75
2022-12-12T11:51:45.748Z,100937.69
2022-12-12T11:54:31.288Z,100930.41
2022-12-12T11:57:12.555Z,100920.47
2022-12-12T12:00:19.152Z,100918.63
2022-12-12T12:03:23.222Z,100921.94
2022-12-12T12:05:55.913Z,100913.16
2022-12-12T12:08:40.779Z,100914.09
2022-12-12T12:11:29.283Z,100918.69
2022-12-12T12:14:30.918Z,100928.88
2022-12-12T12:17:17.193Z,100919.16
2022-12-12T12:19:58.528Z,100913.44
2022-12-12T12:23:05.397Z,100903.81
2022-12-12T12:25:54.777Z,100909.28
2022-12-12T12:28:37.684Z,100919.75
2022-12-12T12:31:14.366Z,100918.00
2022-12-12T12:33:51.569Z,100910.72
2022-12-12T12:36:56.869Z,100927.09
2022-12-12T12:39:53.539Z,100928.47
2022-12-12T12:42:55.308Z,100926.31
2022-12-12T12:45:53.108Z,100920.31
2022-12-12T12:48:28.988Z,100922.75
2022-12-12T12:51:17.070Z,100917.56
2022-12-12T12:53:53.557Z,100925.31
2022-12-12T12:56:26.473Z,100920.66
2022-12-12T12:58:58.358Z,100913.19
2022-12-12T13:01:35.269Z,100904.91
2022-12-12T13:04:12.226Z,100900.25
2022-12-12T13:07:17.063Z,100912.69
2022-12-12T13:10:11.324Z,100905.25
2022-12-12T13:12:54.598Z,100891.06
2022-12-12T13:15:35.004Z,100895.16
2022-12-12T13:18:06.522Z,100888.53
2022-12-12T13:20:40.546Z,100880.63
2022-12-12T13:23:34.745Z,100887.59
2022-12-12T13:26:23.229Z,100878.16
2022-12-12T13:29:00.880Z,100888.84
2022-12-12T13:31:59.866Z,100883.06
2022-12-12T13:34:32.344Z,100879.38
2022-12-12T13:36:59.869Z,100883.69
2022-12-12T13:39:38.186Z,100877.75
2022-12-12T13:42:08.465Z,100879.22
2022-12-12T13:44:45.248Z,100870.25
2022-12-12T13:47:35.057Z,100867.66
2022-12-12T13:50:11.106Z,100884.50
2022-12-12T13:52:42.662Z,100892.19
2022-12-12T13:55:16.094Z,100880.72
2022-12-12T13:58:02.120Z,100882.88
2022-12-12T14:00:36.518Z,100888.88
2022-12-12T14:03:11.774Z,100887.47
2022-12-12T14:05:51.608Z,100882.84
2022-12-12T14:08:18.523Z,100896.19
2022-12-12T14:11:06.839Z,100882.81
2022-12-12T14:13:43.028Z,100869.34
2022-12-12T14:16:16.952Z,100887.38
2022-12-12T14:18:49.971Z,100877.50
2022-12-12T14:21:20.218Z,100874.56
2022-12-12T14:23:52.833Z,100874.19
2022-12-12T14:26:28.992Z,100880.22
2022-12-12T14:29:17.433Z,100870.03
2022-12-12T14:32:25.062Z,100878.69
2022-12-12T14:35:24.000Z,100879.66
2022-12-12T14:38:22.622Z,100880.50
2022-12-12T14:41:02.583Z,100880.53
2022-12-12T14:43:48.093Z,100877.22
2022-12-12T14:46:42.431Z,100884.19
2022-12-12T14:49:18.265Z,100883.75
2022-12-12T14:51:50.265Z,100889.31
2022-12-12T14:54:21.502Z,100891.09
2022-12-12T14:56:53.460Z,100899.59
2022-12-12T14:59:27.577Z,100904.38
2022-12-12T15:02:01.210Z,100905.53
2022-12-12T15:04:35.654Z,100905.41
2022-12-12T15:07:05.517Z,100904.28
2022-12-12T15:09:38.888Z,100902.69
2022-12-12T15:12:11.469Z,100906.81
2022-12-12T15:14:48.319Z,100904.44
2022-12-12T15:17:45.748Z,100906.69
2022-12-12T15:20:21.033Z,100903.59
2022-12-12T15:23:14.955Z,100907.63
2022-12-12T15:25:54.495Z,100909.28
2022-12-12T15:28:24.799Z,100908.50
2022-12-12T15:30:53.697Z,100911.75
2022-12-12T15:33:24.423Z,100907.63
2022-12-12T15:36:02.894Z,100912.41
2022-12-12T15:38:31.722Z,100918.63
2022-12-12T15:41:01.656Z,100913.16
2022-12-12T15:43:30.991Z,100922.91
2022-12-12T15:46:13.823Z,100925.19
2022-12-12T15:48:46.251Z,100922.19
2022-12-12T15:51:18.372Z,100924.38
2022-12-12T15:53:51.691Z,100918.94
2022-12-12T15:56:21.568Z,100926.38
2022-12-12T15:59:14.155Z,100919.22
2022-12-12T16:01:41.247Z,100924.16
2022-12-12T16:04:11.466Z,100926.88
2022-12-12T16:06:44.480Z,100919.31
2022-12-12T16:09:11.309Z,100923.69
2022-12-12T16:11:49.382Z,100925.88
2022-12-12T16:14:38.993Z,100931.03
2022-12-12T16:17:24.092Z,100925.28
2022-12-12T16:20:11.348Z,100932.56
2022-12-12T16:22:48.078Z,100922.72
2022-12-12T16:25:22.662Z,100923.16
2022-12-12T16:28:09.889Z,100918.31
2022-12-12T16:30:42.454Z,100919.56
2022-12-12T16:33:36.190Z,100921.06
2022-12-12T16:36:07.095Z,100920.56
2022-12-12T16:38:35.494Z,100913.59
2022-12-12T16:41:13.332Z,100924.41
2022-12-12T16:43:41.123Z,100928.78
2022-12-12T16:46:24.916Z,100923.59
2022-12-12T16:48:52.641Z,100934.63
2022-12-12T16:51:28.865Z,100912.56
2022-12-12T16:53:56.424Z,100923.75
2022-12-12T16:56:23.391Z,100921.41
2022-12-12T16:58:50.631Z,100920.28
2022-12-12T17:01:17.672Z,100913.03
2022-12-12T17:03:44.706Z,100918.94
2022-12-12T17:06:11.886Z,100918.38
2022-12-12T17:08:38.902Z,100908.81
2022-12-12T17:11:09.637Z,100911.81
2022-12-12T17:13:41.669Z,100906.72
2022-12-12T17:16:08.733Z,100916.25
2022-12-12T17:18:35.839Z,100913.22
2022-12-12T17:21:02.945Z,100917.06
2022-12-12T17:23:30.063Z,100919.28
2022-12-12T17:26:03.379Z,100922.41
2022-12-12T17:28:33.148Z,100917.00
2022-12-12T17:31:02.528Z,100913.63
2022-12-12T17:33:30.184Z,100925.09
2022-12-12T17:35:59.650Z,100915.28
2022-12-12T17:38:26.796Z,100916.50
2022-12-12T17:40:55.877Z,100916.19
2022-12-12T17:43:26.189Z,100910.38
2022-12-12T17:46:02.330Z,100920.50
2022-12-12T17:48:31.974Z,100906.97
2022-12-12T17:51:05.208Z,100904.88
2022-12-12T17:53:38.460Z,100918.78
2022-12-12T17:56:16.007Z,100915.25
2022-12-12T17:58:46.280Z,100914.81
2022-12-12T18:01:22.030Z,100910.38
2022-12-12T18:03:49.885Z,100918.56
2022-12-12T18:06:19.474Z,100912.16
2022-12-12T18:08:47.525Z,100899.88
2022-12-12T18:11:24.760Z,100903.84
2022-12-12T18:13:53.880Z,100909.53
2022-12-12T18:16:23.671Z,100906.56
2022-12-12T18:18:55.051Z,100912.25
2022-12-12T18:24:13.434Z,100909.44
2022-12-12T18:26:40.629Z,100908.03
2022-12-12T18:29:09.434Z,100913.84
2022-12-12T18:31:36.587Z,100924.91
2022-12-12T18:34:04.221Z,100916.34
2022-12-12T18:36:32.081Z,100907.28
2022-12-12T18:39:01.613Z,100913.13
2022-12-12T18:41:31.623Z,100913.25
2022-12-12T18:44:03.239Z,100909.94
2022-12-12T18:46:33.962Z,100923.94
2022-12-12T18:49:03.175Z,100923.66
2022-12-12T18:51:30.833Z,100920.16
2022-12-12T18:54:05.341Z,100928.94
2022-12-12T18:56:36.022Z,100926.72
2022-12-12T18:59:03.491Z,100925.28
2022-12-12T19:01:34.492Z,100923.34
2022-12-12T19:04:10.676Z,100910.72
2022-12-12T19:06:40.419Z,100917.88
2022-12-12T19:09:14.598Z,100907.28
2022-12-12T19:11:42.026Z,100906.28
2022-12-12T19:14:11.480Z,100909.78
2022-12-12T19:16:38.547Z,100908.38
2022-12-12T19:19:06.445Z,100900.66
2022-12-12T19:21:36.499Z,100914.69
2022-12-12T19:24:04.848Z,100911.09
2022-12-12T19:26:32.061Z,100911.97
2022-12-12T19:29:03.587Z,100910.19
2022-12-12T19:31:34.657Z,100909.91
2022-12-12T19:34:07.270Z,100916.09
2022-12-12T19:36:35.802Z,100921.16
2022-12-12T19:39:05.204Z,100928.78
2022-12-12T19:41:32.660Z,100924.56
2022-12-12T19:44:05.161Z,100927.56
2022-12-12T19:46:33.063Z,100926.50
2022-12-12T19:49:09.565Z,100929.16
2022-12-12T19:51:39.260Z,100925.84
2022-12-12T19:54:13.917Z,100929.47
2022-12-12T19:56:41.694Z,100937.38
2022-12-12T19:59:15.625Z,100941.28
2022-12-12T20:01:43.641Z,100940.84
2022-12-12T20:04:17.674Z,100946.50
2022-12-12T20:06:46.489Z,100950.84
2022-12-12T20:09:23.605Z,100950.66
2022-12-12T20:11:51.032Z,100953.13
2022-12-12T20:14:24.753Z,100952.16
2022-12-12T20:16:53.845Z,100958.06
2022-12-12T20:19:23.317Z,100959.59
2022-12-12T20:22:01.666Z,100953.44
2022-12-12T20:24:30.570Z,100950.97
2022-12-12T20:26:59.586Z,100961.84
2022-12-12T20:29:27.297Z,100961.06
2022-12-12T20:31:54.292Z,100969.81
2022-12-12T20:34:24.314Z,100968.41
2022-12-12T20:36:51.553Z,100973.22
2022-12-12T20:39:21.919Z,100964.09
2022-12-12T20:41:50.619Z,100959.81
2022-12-12T20:44:17.870Z,100963.06
2022-12-12T20:46:46.837Z,100971.47
2022-12-12T20:49:17.669Z,100974.28
2022-12-12T20:52:00.940Z,100978.00
2022-12-12T20:54:29.528Z,100974.88
2022-12-12T20:56:58.176Z,100976.06
2022-12-12T20:59:25.589Z,100977.81
2022-12-12T21:01:52.958Z,100975.81
2022-12-12T21:04:20.941Z,100968.34
2022-12-12T21:06:49.391Z,100965.50
2022-12-12T21:09:23.654Z,100970.31
2022-12-12T21:11:57.844Z,100953.16
2022-12-12T21:14:27.331Z,100961.72
2022-12-12T21:16:55.062Z,100955.16
2022-12-12T21:19:23.429Z,100956.56
2022-12-12T21:21:51.754Z,100958.69
2022-12-12T21:24:19.681Z,100953.19
2022-12-12T21:26:47.584Z,100959.44
2022-12-12T21:29:15.505Z,100934.09
2022-12-12T21:31:50.433Z,100936.06
2022-12-12T21:34:22.167Z,100936.00
2022-12-12T21:36:54.865Z,100925.50
2022-12-12T21:39:27.473Z,100939.66
2022-12-12T21:41:55.964Z,100933.09
2022-12-12T21:44:23.100Z,100938.81
2022-12-12T21:46:50.641Z,100932.25
2022-12-12T21:49:26.012Z,100934.13
2022-12-12T21:52:03.575Z,100934.22
2022-12-12T21:54:31.057Z,100938.00
2022-12-12T21:57:00.101Z,100940.59
2022-12-12T21:59:27.852Z,100944.28
2022-12-12T22:02:00.356Z,100944.00
2022-12-12T22:04:27.827Z,100940.00
2022-12-12T22:06:55.474Z,100940.31
2022-12-12T22:09:22.663Z,100943.69
2022-12-12T22:11:51.504Z,100939.47
2022-12-12T22:14:21.601Z,100947.44
2022-12-12T22:16:49.529Z,100945.19
2022-12-12T22:19:17.260Z,100935.94
2022-12-12T22:21:46.603Z,100934.19
2022-12-12T22:24:14.570Z,100935.69
2022-12-12T22:26:44.504Z,100935.31
2022-12-12T22:29:18.781Z,100943.06
2022-12-12T22:31:46.424Z,100939.91
2022-12-12T22:34:20.931Z,100936.06
2022-12-12T22:36:48.428Z,100931.44
2022-12-12T22:39:23.493Z,100944.56
2022-12-12T22:41:50.889Z,100942.41
2022-12-12T22:44:21.512Z,100930.63
2022-12-12T22:46:50.770Z,100943.34
2022-12-12T22:49:27.569Z,100947.41
2022-12-12T22:51:57.345Z,100947.22
2022-12-12T22:54:25.678Z,100943.69
2022-12-12T22:56:52.832Z,100940.72
2022-12-12T22:59:19.851Z,100934.72
2022-12-12T23:01:46.788Z,100946.38
2022-12-12T23:04:14.456Z,100946.91
2022-12-12T23:06:42.622Z,100952.44
2022-12-12T23:09:16.085Z,100938.31
2022-12-12T23:11:44.625Z,100939.28
2022-12-12T23:14:19.833Z,100936.97
2022-12-12T23:16:46.840Z,100926.19
2022-12-12T23:19:17.321Z,100929.31
2022-12-12T23:21:44.932Z,100926.28
2022-12-12T23:24:12.825Z,100913.13
2022-12-12T23:26:40.122Z,100921.59
2022-12-12T23:29:10.108Z,100916.69
2022-12-12T23:31:38.915Z,100913.59
2022-12-12T23:34:22.987Z,100905.75
2022-12-12T23:36:52.407Z,100899.84
2022-12-12T23:39:19.877Z,100914.66
2022-12-12T23:41:47.579Z,100912.31
2022-12-12T23:44:16.950Z,100913.28
2022-12-12T23:46:44.848Z,100901.19
2022-12-12T23:49:26.184Z,100897.31
2022-12-12T23:51:56.019Z,100896.09
2022-12-12T23:54:27.338Z,100885.31
2022-12-12T23:56:54.961Z,100887.97
2022-12-12T23:59:22.279Z,100891.16
